createdAt,value
2022-09-11T00:00:47.794Z,18.8
2022-09-11T00:01:51.498Z,18.8
2022-09-11T00:02:54.679Z,18.8
2022-09-11T00:03:58.160Z,18.8
2022-09-11T00:05:00.982Z,18.8
2022-09-11T00:06:04.492Z,18.8
2022-09-11T00:07:07.306Z,18.8
2022-09-11T00:08:10.098Z,18.8
2022-09-11T00:09:13.066Z,18.8
2022-09-11T00:10:15.947Z,18.8
2022-09-11T00:11:19.708Z,18.8
2022-09-11T00:12:22.704Z,18.8
2022-09-11T00:13:25.488Z,18.8
2022-09-11T00:14:28.212Z,18.8
2022-09-11T00:15:31.054Z,18.8
2022-09-11T00:16:33.173Z,18.8
2022-09-11T00:17:36.670Z,18.8
2022-09-11T00:18:39.659Z,18.8
2022-09-11T00:19:42.712Z,18.8
2022-09-11T00:20:45.855Z,18.8
2022-09-11T00:21:49.304Z,18.8
2022-09-11T00:22:52.399Z,18.8
2022-09-11T00:23:54.959Z,18.8
2022-09-11T00:24:57.470Z,18.8
2022-09-11T00:26:00.018Z,18.7
2022-09-11T00:27:03.872Z,18.7
2022-09-11T00:28:07.142Z,18.8
2022-09-11T00:29:09.745Z,18.7
2022-09-11T00:30:12.562Z,18.7
2022-09-11T00:31:15.532Z,18.7
2022-09-11T00:32:18.599Z,18.7
2022-09-11T00:33:21.094Z,18.7
2022-09-11T00:34:24.778Z,18.7
2022-09-11T00:35:27.634Z,18.7
2022-09-11T00:36:30.056Z,18.7
2022-09-11T00:37:33.093Z,18.7
2022-09-11T00:38:35.960Z,18.7
2022-09-11T00:39:39.535Z,18.7
2022-09-11T00:40:42.384Z,18.7
2022-09-11T00:41:45.211Z,18.7
2022-09-11T00:42:49.110Z,18.7
2022-09-11T00:43:53.118Z,18.7
2022-09-11T00:44:56.643Z,18.7
2022-09-11T00:46:00.104Z,18.7
2022-09-11T00:47:02.709Z,18.7
2022-09-11T00:48:05.610Z,18.7
2022-09-11T00:49:08.320Z,18.7
2022-09-11T00:50:11.747Z,18.7
2022-09-11T00:51:14.645Z,18.7
2022-09-11T00:52:18.109Z,18.7
2022-09-11T00:53:20.975Z,18.7
2022-09-11T00:54:23.848Z,18.7
2022-09-11T00:55:27.543Z,18.7
2022-09-11T00:56:30.769Z,18.7
2022-09-11T00:57:33.583Z,18.7
2022-09-11T00:58:37.496Z,18.7
2022-09-11T00:59:41.524Z,18.7
2022-09-11T01:00:44.770Z,18.7
2022-09-11T01:01:48.158Z,18.6
2022-09-11T01:02:50.971Z,18.6
2022-09-11T01:03:53.904Z,18.6
2022-09-11T01:04:57.043Z,18.6
2022-09-11T01:05:59.757Z,18.6
2022-09-11T01:07:02.190Z,18.6
2022-09-11T01:08:05.001Z,18.6
2022-09-11T01:09:08.255Z,18.6
2022-09-11T01:10:11.318Z,18.6
2022-09-11T01:11:14.494Z,18.6
2022-09-11T01:12:17.651Z,18.5
2022-09-11T01:13:20.391Z,18.5
2022-09-11T01:14:24.272Z,18.5
2022-09-11T01:15:27.460Z,18.5
2022-09-11T01:16:30.698Z,18.5
2022-09-11T01:17:34.343Z,18.5
2022-09-11T01:18:36.856Z,18.5
2022-09-11T01:19:40.002Z,18.5
2022-09-11T01:20:42.615Z,18.5
2022-09-11T01:21:44.851Z,18.5
2022-09-11T01:22:47.457Z,18.4
2022-09-11T01:23:49.976Z,18.4
2022-09-11T01:24:52.943Z,18.4
2022-09-11T01:25:56.369Z,18.4
2022-09-11T01:26:58.871Z,18.4
2022-09-11T01:28:01.520Z,18.4
2022-09-11T01:29:04.900Z,18.4
2022-09-11T01:30:12.650Z,18.4
2022-09-11T01:31:16.268Z,18.5
2022-09-11T01:32:19.211Z,18.4
2022-09-11T01:33:22.658Z,18.4
2022-09-11T01:34:26.118Z,18.4
2022-09-11T01:35:28.723Z,18.4
2022-09-11T01:36:31.512Z,18.4
2022-09-11T01:37:34.688Z,18.4
2022-09-11T01:38:37.795Z,18.4
2022-09-11T01:39:40.959Z,18.4
2022-09-11T01:40:44.571Z,18.4
2022-09-11T01:41:47.641Z,18.4
2022-09-11T01:42:50.302Z,18.4
2022-09-11T01:43:53.455Z,18.4
2022-09-11T01:44:56.560Z,18.3
2022-09-11T01:46:00.785Z,18.3
2022-09-11T01:47:03.904Z,18.3
2022-09-11T01:48:06.696Z,18.3
2022-09-11T01:49:09.587Z,18.3
2022-09-11T01:50:12.923Z,18.3
2022-09-11T01:51:15.785Z,18.3
2022-09-11T01:52:17.942Z,18.3
2022-09-11T01:53:21.378Z,18.3
2022-09-11T01:54:24.718Z,18.3
2022-09-11T01:55:27.510Z,18.3
2022-09-11T01:56:30.927Z,18.3
2022-09-11T01:57:34.040Z,18.3
2022-09-11T01:58:37.201Z,18.3
2022-09-11T01:59:40.695Z,18.3
2022-09-11T02:00:43.247Z,18.3
2022-09-11T02:01:47.366Z,18.3
2022-09-11T02:02:50.325Z,18.2
2022-09-11T02:03:53.410Z,18.3
2022-09-11T02:04:56.577Z,18.2
2022-09-11T02:05:59.629Z,18.3
2022-09-11T02:07:02.716Z,18.3
2022-09-11T02:08:05.231Z,18.3
2022-09-11T02:09:08.577Z,18.2
2022-09-11T02:10:11.658Z,18.3
2022-09-11T02:11:14.175Z,18.3
2022-09-11T02:12:16.491Z,18.3
2022-09-11T02:13:19.557Z,18.3
2022-09-11T02:14:22.433Z,18.2
2022-09-11T02:15:25.305Z,18.2
2022-09-11T02:16:28.753Z,18.2
2022-09-11T02:17:33.168Z,18.2
2022-09-11T02:18:36.590Z,18.3
2022-09-11T02:19:39.400Z,18.3
2022-09-11T02:20:42.196Z,18.3
2022-09-11T02:21:44.908Z,18.2
2022-09-11T02:22:48.133Z,18.2
2022-09-11T02:23:51.209Z,18.2
2022-09-11T02:24:54.026Z,18.2
2022-09-11T02:25:57.467Z,18.2
2022-09-11T02:27:01.082Z,18.3
2022-09-11T02:28:04.584Z,18.2
2022-09-11T02:29:07.300Z,18.3
2022-09-11T02:30:09.818Z,18.2
2022-09-11T02:31:13.089Z,18.2
2022-09-11T02:32:16.374Z,18.3
2022-09-11T02:33:20.246Z,18.2
2022-09-11T02:34:23.338Z,18.3
2022-09-11T02:35:26.135Z,18.3
2022-09-11T02:36:28.727Z,18.2
2022-09-11T02:37:31.895Z,18.3
2022-09-11T02:38:34.763Z,18.2
2022-09-11T02:39:38.053Z,18.3
2022-09-11T02:40:41.063Z,18.3
2022-09-11T02:41:44.146Z,18.2
2022-09-11T02:42:47.356Z,18.3
2022-09-11T02:43:50.228Z,18.3
2022-09-11T02:44:53.224Z,18.3
2022-09-11T02:45:55.707Z,18.3
2022-09-11T02:46:58.420Z,18.3
2022-09-11T02:48:01.298Z,18.3
2022-09-11T02:49:05.366Z,18.2
2022-09-11T02:50:08.793Z,18.2
2022-09-11T02:51:12.062Z,18.3
2022-09-11T02:52:14.868Z,18.3
2022-09-11T02:53:17.457Z,18.2
2022-09-11T02:54:20.333Z,18.2
2022-09-11T02:55:23.212Z,18.2
2022-09-11T02:56:25.810Z,18.2
2022-09-11T02:57:29.259Z,18.2
2022-09-11T02:58:31.655Z,18.3
2022-09-11T02:59:34.647Z,18.2
2022-09-11T03:00:37.518Z,18.2
2022-09-11T03:01:40.550Z,18.2
2022-09-11T03:02:43.473Z,18.2
2022-09-11T03:03:47.576Z,18.3
2022-09-11T03:04:51.734Z,18.2
2022-09-11T03:05:54.783Z,18.2
2022-09-11T03:06:58.149Z,18.2
2022-09-11T03:08:01.318Z,18.3
2022-09-11T03:09:03.727Z,18.2
2022-09-11T03:10:06.508Z,18.3
2022-09-11T03:11:09.755Z,18.3
2022-09-11T03:12:13.121Z,18.2
2022-09-11T03:13:15.980Z,18.2
2022-09-11T03:14:18.771Z,18.2
2022-09-11T03:15:20.939Z,18.2
2022-09-11T03:16:24.012Z,18.2
2022-09-11T03:17:27.166Z,18.3
2022-09-11T03:18:30.241Z,18.2
2022-09-11T03:19:33.055Z,18.3
2022-09-11T03:20:36.940Z,18.2
2022-09-11T03:21:39.762Z,18.2
2022-09-11T03:22:42.821Z,18.2
2022-09-11T03:23:45.156Z,18.2
2022-09-11T03:24:47.946Z,18.2
2022-09-11T03:25:50.262Z,18.2
2022-09-11T03:26:53.155Z,18.2
2022-09-11T03:27:55.748Z,18.2
2022-09-11T03:28:58.619Z,18.2
2022-09-11T03:30:01.409Z,18.2
2022-09-11T03:31:04.947Z,18.2
2022-09-11T03:32:08.218Z,18.2
2022-09-11T03:33:11.011Z,18.2
2022-09-11T03:34:13.528Z,18.2
2022-09-11T03:35:16.139Z,18.2
2022-09-11T03:36:20.202Z,18.2
2022-09-11T03:37:23.016Z,18.2
2022-09-11T03:38:26.551Z,18.2
2022-09-11T03:39:29.816Z,18.2
2022-09-11T03:40:32.884Z,18.2
2022-09-11T03:41:36.315Z,18.2
2022-09-11T03:42:39.453Z,18.2
2022-09-11T03:43:42.207Z,18.2
2022-09-11T03:44:46.418Z,18.2
2022-09-11T03:45:49.503Z,18.2
2022-09-11T03:46:52.510Z,18.2
2022-09-11T03:47:56.301Z,18.3
2022-09-11T03:48:58.621Z,18.2
2022-09-11T03:50:01.759Z,18.2
2022-09-11T03:51:04.946Z,18.2
2022-09-11T03:52:08.794Z,18.2
2022-09-11T03:53:12.332Z,18.3
2022-09-11T03:54:15.672Z,18.2
2022-09-11T03:55:18.450Z,18.2
2022-09-11T03:56:22.218Z,18.2
2022-09-11T03:57:24.729Z,18.2
2022-09-11T03:58:27.443Z,18.2
2022-09-11T03:59:30.584Z,18.2
2022-09-11T04:00:33.465Z,18.3
2022-09-11T04:01:36.535Z,18.3
2022-09-11T04:02:38.855Z,18.2
2022-09-11T04:03:41.627Z,18.2
2022-09-11T04:04:45.063Z,18.3
2022-09-11T04:05:47.862Z,18.2
2022-09-11T04:06:50.316Z,18.2
2022-09-11T04:07:54.139Z,18.3
2022-09-11T04:08:56.677Z,18.2
2022-09-11T04:09:59.572Z,18.2
2022-09-11T04:11:02.989Z,18.2
2022-09-11T04:12:06.342Z,18.2
2022-09-11T04:13:08.580Z,18.2
2022-09-11T04:14:11.370Z,18.3
2022-09-11T04:15:15.143Z,18.2
2022-09-11T04:16:18.686Z,18.3
2022-09-11T04:17:21.494Z,18.2
2022-09-11T04:18:24.751Z,18.2
2022-09-11T04:19:27.805Z,18.2
2022-09-11T04:20:31.029Z,18.2
2022-09-11T04:21:33.258Z,18.2
2022-09-11T04:22:35.802Z,18.2
2022-09-11T04:23:40.183Z,18.2
2022-09-11T04:24:43.460Z,18.2
2022-09-11T04:25:46.799Z,18.2
2022-09-11T04:26:49.669Z,18.2
2022-09-11T04:27:52.652Z,18.2
2022-09-11T04:28:55.822Z,18.2
2022-09-11T04:29:58.618Z,18.2
2022-09-11T04:31:02.070Z,18.2
2022-09-11T04:32:05.262Z,18.2
2022-09-11T04:33:07.931Z,18.2
2022-09-11T04:34:11.206Z,18.2
2022-09-11T04:35:14.339Z,18.2
2022-09-11T04:36:17.202Z,18.2
2022-09-11T04:37:20.629Z,18.2
2022-09-11T04:38:23.627Z,18.2
2022-09-11T04:39:27.713Z,18.2
2022-09-11T04:40:31.074Z,18.2
2022-09-11T04:41:34.521Z,18.2
2022-09-11T04:42:37.391Z,18.2
2022-09-11T04:43:41.735Z,18.2
2022-09-11T04:44:44.671Z,18.2
2022-09-11T04:45:47.631Z,18.2
2022-09-11T04:46:51.190Z,18.1
2022-09-11T04:47:53.705Z,18.2
2022-09-11T04:48:56.595Z,18.1
2022-09-11T04:49:59.312Z,18.1
2022-09-11T04:51:01.909Z,18.1
2022-09-11T04:52:05.335Z,18.1
2022-09-11T04:53:07.944Z,18.1
2022-09-11T04:54:11.377Z,18.2
2022-09-11T04:55:15.542Z,18.2
2022-09-11T04:56:19.005Z,18.2
2022-09-11T04:57:21.596Z,18.2
2022-09-11T04:58:24.107Z,18.2
2022-09-11T04:59:27.002Z,18.1
2022-09-11T05:00:29.757Z,18.1
2022-09-11T05:01:32.590Z,18.1
2022-09-11T05:02:35.688Z,18.1
2022-09-11T05:03:38.852Z,18.2
2022-09-11T05:04:42.347Z,18.2
2022-09-11T05:05:45.883Z,18.1
2022-09-11T05:06:49.248Z,18.2
2022-09-11T05:07:51.766Z,18.2
2022-09-11T05:08:54.833Z,18.2
2022-09-11T05:09:58.245Z,18.1
2022-09-11T05:11:02.144Z,18.2
2022-09-11T05:12:05.250Z,18.1
2022-09-11T05:13:08.398Z,18.1
2022-09-11T05:14:11.472Z,18.1
2022-09-11T05:15:14.663Z,18.1
2022-09-11T05:16:16.884Z,18.1
2022-09-11T05:17:20.298Z,18.1
2022-09-11T05:18:23.079Z,18.1
2022-09-11T05:19:25.541Z,18.1
2022-09-11T05:20:28.909Z,18.1
2022-09-11T05:21:32.003Z,18.1
2022-09-11T05:22:34.799Z,18.1
2022-09-11T05:23:37.462Z,18.1
2022-09-11T05:24:41.588Z,18.1
2022-09-11T05:25:44.401Z,18.1
2022-09-11T05:26:48.474Z,18.1
2022-09-11T05:27:50.999Z,18.1
2022-09-11T05:28:54.342Z,18.1
2022-09-11T05:29:57.058Z,18.1
2022-09-11T05:30:59.991Z,18.1
2022-09-11T05:32:03.156Z,18.1
2022-09-11T05:33:05.748Z,18.1
2022-09-11T05:34:08.894Z,18
2022-09-11T05:35:11.500Z,18
2022-09-11T05:36:14.961Z,18
2022-09-11T05:37:18.387Z,18
2022-09-11T05:38:21.627Z,18
2022-09-11T05:39:24.950Z,18
2022-09-11T05:40:27.330Z,18
2022-09-11T05:41:30.782Z,18.1
2022-09-11T05:42:34.875Z,18.1
2022-09-11T05:43:37.674Z,18.1
2022-09-11T05:44:41.009Z,18.1
2022-09-11T05:45:44.565Z,18.1
2022-09-11T05:46:48.510Z,18.1
2022-09-11T05:47:56.703Z,18.1
2022-09-11T05:48:59.484Z,18.1
2022-09-11T05:50:01.645Z,18.1
2022-09-11T05:51:05.116Z,18.1
2022-09-11T05:52:08.513Z,18.1
2022-09-11T05:53:11.718Z,18.1
2022-09-11T05:54:14.792Z,18.1
2022-09-11T05:55:17.382Z,18.1
2022-09-11T05:56:20.170Z,18.1
2022-09-11T05:57:23.890Z,18.1
2022-09-11T05:58:27.690Z,18.2
2022-09-11T05:59:30.872Z,18.2
2022-09-11T06:00:33.660Z,18.2
2022-09-11T06:01:36.447Z,18.2
2022-09-11T06:02:39.433Z,18.2
2022-09-11T06:03:43.523Z,18.2
2022-09-11T06:04:46.018Z,18.2
2022-09-11T06:05:48.598Z,18.2
2022-09-11T06:06:52.052Z,18.3
2022-09-11T06:07:55.260Z,18.3
2022-09-11T06:08:58.718Z,18.3
2022-09-11T06:10:04.143Z,18.3
2022-09-11T06:11:06.946Z,18.3
2022-09-11T06:12:09.874Z,18.3
2022-09-11T06:13:13.043Z,18.3
2022-09-11T06:14:16.883Z,18.3
2022-09-11T06:15:47.385Z,18.3
2022-09-11T06:16:50.772Z,18.3
2022-09-11T06:17:53.803Z,18.4
2022-09-11T06:18:57.214Z,18.4
2022-09-11T06:20:00.181Z,18.4
2022-09-11T06:21:02.810Z,18.4
2022-09-11T06:22:05.690Z,18.4
2022-09-11T06:23:10.115Z,18.4
2022-09-11T06:24:12.919Z,18.4
2022-09-11T06:25:16.169Z,18.4
2022-09-11T06:26:18.887Z,18.4
2022-09-11T06:27:21.479Z,18.4
2022-09-11T06:28:24.652Z,18.4
2022-09-11T06:29:28.738Z,18.4
2022-09-11T06:30:32.042Z,18.4
2022-09-11T06:31:35.851Z,18.4
2022-09-11T06:32:38.254Z,18.4
2022-09-11T06:33:41.272Z,18.4
2022-09-11T06:34:44.079Z,18.4
2022-09-11T06:35:46.855Z,18.5
2022-09-11T06:36:52.841Z,18.5
2022-09-11T06:37:55.547Z,18.5
2022-09-11T06:38:57.777Z,18.5
2022-09-11T06:40:01.035Z,18.5
2022-09-11T06:41:03.988Z,18.5
2022-09-11T06:42:07.356Z,18.5
2022-09-11T06:43:10.789Z,18.6
2022-09-11T06:44:14.434Z,18.6
2022-09-11T06:45:18.325Z,18.6
2022-09-11T06:46:21.524Z,18.6
2022-09-11T06:47:24.687Z,18.5
2022-09-11T06:48:28.419Z,18.6
2022-09-11T06:49:31.764Z,18.6
2022-09-11T06:50:37.610Z,18.6
2022-09-11T06:51:40.194Z,18.6
2022-09-11T06:52:43.618Z,18.6
2022-09-11T06:53:46.209Z,18.6
2022-09-11T06:54:49.286Z,18.6
2022-09-11T06:55:52.512Z,18.6
2022-09-11T06:56:55.312Z,18.7
2022-09-11T06:57:58.537Z,18.7
2022-09-11T06:59:01.528Z,18.7
2022-09-11T07:00:04.087Z,18.7
2022-09-11T07:01:08.633Z,18.8
2022-09-11T07:02:12.815Z,18.8
2022-09-11T07:03:15.501Z,18.8
2022-09-11T07:04:18.863Z,18.8
2022-09-11T07:05:22.033Z,18.9
2022-09-11T07:06:25.753Z,18.9
2022-09-11T07:07:29.010Z,18.9
2022-09-11T07:08:31.642Z,18.9
2022-09-11T07:09:34.797Z,19
2022-09-11T07:10:37.866Z,19
2022-09-11T07:11:40.573Z,19
2022-09-11T07:12:43.731Z,19
2022-09-11T07:13:46.909Z,19
2022-09-11T07:14:49.715Z,19.1
2022-09-11T07:15:52.679Z,19.1
2022-09-11T07:16:56.645Z,19.1
2022-09-11T07:17:59.239Z,19.1
2022-09-11T07:19:02.508Z,19.2
2022-09-11T07:20:05.663Z,19.2
2022-09-11T07:21:09.322Z,19.2
2022-09-11T07:22:12.488Z,19.2
2022-09-11T07:23:15.723Z,19.2
2022-09-11T07:24:18.599Z,19.3
2022-09-11T07:25:21.740Z,19.3
2022-09-11T07:26:24.341Z,19.3
2022-09-11T07:27:27.693Z,19.3
2022-09-11T07:28:31.467Z,19.4
2022-09-11T07:29:34.533Z,19.4
2022-09-11T07:30:37.545Z,19.4
2022-09-11T07:31:40.737Z,19.4
2022-09-11T07:32:44.569Z,19.4
2022-09-11T07:33:47.666Z,19.4
2022-09-11T07:34:50.543Z,19.4
2022-09-11T07:35:53.343Z,19.4
2022-09-11T07:36:56.137Z,19.5
2022-09-11T07:37:59.226Z,19.5
2022-09-11T07:39:02.685Z,19.5
2022-09-11T07:40:06.380Z,19.5
2022-09-11T07:41:09.065Z,19.6
2022-09-11T07:42:11.823Z,19.6
2022-09-11T07:43:14.437Z,19.6
2022-09-11T07:44:18.164Z,19.6
2022-09-11T07:45:23.736Z,19.6
2022-09-11T07:46:26.610Z,19.7
2022-09-11T07:47:30.359Z,19.7
2022-09-11T07:48:34.258Z,19.7
2022-09-11T07:49:37.414Z,19.7
2022-09-11T07:50:40.278Z,19.7
2022-09-11T07:51:43.146Z,19.8
2022-09-11T07:52:46.244Z,19.8
2022-09-11T07:53:49.102Z,19.9
2022-09-11T07:54:51.965Z,20
2022-09-11T07:55:55.033Z,20
2022-09-11T07:56:58.188Z,20.1
2022-09-11T07:58:01.359Z,20.1
2022-09-11T07:59:04.229Z,20.2
2022-09-11T08:00:07.669Z,20.2
2022-09-11T08:01:10.530Z,20.2
2022-09-11T08:02:13.692Z,20.2
2022-09-11T08:03:16.455Z,20.2
2022-09-11T08:04:20.522Z,20.3
2022-09-11T08:05:23.391Z,20.3
2022-09-11T08:06:26.545Z,20.3
2022-09-11T08:07:29.900Z,20.3
2022-09-11T08:08:32.774Z,20.3
2022-09-11T08:09:36.119Z,20.3
2022-09-11T08:10:38.730Z,20.3
2022-09-11T08:11:41.547Z,20.3
2022-09-11T08:12:44.623Z,20.3
2022-09-11T08:13:47.689Z,20.3
2022-09-11T08:14:50.478Z,20.3
2022-09-11T08:15:53.730Z,20.3
2022-09-11T08:16:56.886Z,20.3
2022-09-11T08:17:59.329Z,20.3
2022-09-11T08:19:02.209Z,20.3
2022-09-11T08:20:06.306Z,20.4
2022-09-11T08:21:13.839Z,20.4
2022-09-11T08:22:16.699Z,20.4
2022-09-11T08:23:19.887Z,20.5
2022-09-11T08:24:23.615Z,20.5
2022-09-11T08:25:27.342Z,20.6
2022-09-11T08:26:30.410Z,20.6
2022-09-11T08:27:34.056Z,20.7
2022-09-11T08:28:37.830Z,20.6
2022-09-11T08:29:40.717Z,20.7
2022-09-11T08:30:43.315Z,20.7
2022-09-11T08:31:46.756Z,20.7
2022-09-11T08:32:49.540Z,20.7
2022-09-11T08:33:52.801Z,20.7
2022-09-11T08:34:56.277Z,20.7
2022-09-11T08:36:00.435Z,20.7
2022-09-11T08:37:03.347Z,20.7
2022-09-11T08:38:06.486Z,20.7
2022-09-11T08:39:09.113Z,20.7
2022-09-11T08:40:12.822Z,20.7
2022-09-11T08:41:16.217Z,20.7
2022-09-11T08:42:19.558Z,20.7
2022-09-11T08:43:22.717Z,20.7
2022-09-11T08:44:25.164Z,20.7
2022-09-11T08:45:28.680Z,20.7
2022-09-11T08:46:31.028Z,20.7
2022-09-11T08:47:34.387Z,20.8
2022-09-11T08:48:37.485Z,20.8
2022-09-11T08:49:41.206Z,20.9
2022-09-11T08:50:44.020Z,20.9
2022-09-11T08:51:47.799Z,21
2022-09-11T08:52:50.885Z,21.2
2022-09-11T08:53:53.473Z,21.2
2022-09-11T08:54:56.516Z,21.4
2022-09-11T08:56:00.272Z,21.5
2022-09-11T08:57:03.060Z,21.6
2022-09-11T08:58:06.128Z,21.7
2022-09-11T08:59:09.026Z,21.8
2022-09-11T09:00:11.464Z,21.9
2022-09-11T09:01:15.401Z,22
2022-09-11T09:02:18.238Z,22.1
2022-09-11T09:03:21.553Z,22.2
2022-09-11T09:04:24.775Z,22.4
2022-09-11T09:05:27.914Z,22.4
2022-09-11T09:06:30.454Z,22.5
2022-09-11T09:07:34.337Z,22.6
2022-09-11T09:08:36.877Z,22.7
2022-09-11T09:09:38.840Z,22.8
2022-09-11T09:10:41.152Z,22.9
2022-09-11T09:11:44.417Z,22.9
2022-09-11T09:12:47.562Z,23
2022-09-11T09:13:51.012Z,23.1
2022-09-11T09:14:54.090Z,23.2
2022-09-11T09:15:57.105Z,23.3
2022-09-11T09:17:00.265Z,23.3
2022-09-11T09:18:02.795Z,23.4
2022-09-11T09:19:05.948Z,23.4
2022-09-11T09:20:09.382Z,23.5
2022-09-11T09:21:12.087Z,23.5
2022-09-11T09:22:14.911Z,23.6
2022-09-11T09:23:18.994Z,23.6
2022-09-11T09:24:22.775Z,23.7
2022-09-11T09:25:25.842Z,23.7
2022-09-11T09:26:29.205Z,23.8
2022-09-11T09:27:32.093Z,23.8
2022-09-11T09:28:34.891Z,23.8
2022-09-11T09:29:37.879Z,23.9
2022-09-11T09:30:40.870Z,23.9
2022-09-11T09:31:43.658Z,23.9
2022-09-11T09:32:46.651Z,23.9
2022-09-11T09:33:49.715Z,23.9
2022-09-11T09:34:52.303Z,23.8
2022-09-11T09:35:55.646Z,23.8
2022-09-11T09:36:59.171Z,23.8
2022-09-11T09:38:01.236Z,23.8
2022-09-11T09:39:05.304Z,23.7
2022-09-11T09:40:08.801Z,23.7
2022-09-11T09:41:11.949Z,23.7
2022-09-11T09:42:14.641Z,23.6
2022-09-11T09:43:17.709Z,23.6
2022-09-11T09:44:21.070Z,23.5
2022-09-11T09:45:24.402Z,23.5
2022-09-11T09:46:27.762Z,23.5
2022-09-11T09:47:31.490Z,23.4
2022-09-11T09:48:35.193Z,23.4
2022-09-11T09:49:37.363Z,23.3
2022-09-11T09:50:40.337Z,23.3
2022-09-11T09:51:42.943Z,23.3
2022-09-11T09:52:46.014Z,23.2
2022-09-11T09:53:49.190Z,23.2
2022-09-11T09:54:53.290Z,23.1
2022-09-11T09:55:56.724Z,23.1
2022-09-11T09:56:59.880Z,23.1
2022-09-11T09:58:02.593Z,23.1
2022-09-11T09:59:05.741Z,23.1
2022-09-11T10:00:08.623Z,23
2022-09-11T10:01:18.416Z,23
2022-09-11T10:02:22.397Z,23
2022-09-11T10:03:26.505Z,23
2022-09-11T10:04:29.711Z,23
2022-09-11T10:05:33.035Z,23.1
2022-09-11T10:06:36.382Z,23
2022-09-11T10:07:39.551Z,23
2022-09-11T10:08:43.388Z,22.9
2022-09-11T10:09:47.037Z,22.9
2022-09-11T10:10:51.106Z,22.8
2022-09-11T10:11:54.184Z,22.8
2022-09-11T10:13:20.351Z,22.8
2022-09-11T10:14:52.720Z,22.7
2022-09-11T10:15:56.202Z,22.7
2022-09-11T10:16:59.233Z,22.6
2022-09-11T10:18:01.631Z,22.6
2022-09-11T10:19:04.930Z,22.5
2022-09-11T10:20:08.352Z,22.6
2022-09-11T10:21:11.228Z,22.5
2022-09-11T10:22:14.332Z,22.5
2022-09-11T10:23:17.315Z,22.5
2022-09-11T10:24:20.313Z,22.5
2022-09-11T10:25:23.420Z,22.5
2022-09-11T10:26:27.536Z,22.5
2022-09-11T10:27:30.286Z,22.5
2022-09-11T10:28:33.617Z,22.4
2022-09-11T10:29:36.821Z,22.5
2022-09-11T10:30:40.045Z,22.4
2022-09-11T10:31:43.209Z,22.4
2022-09-11T10:32:46.921Z,22.4
2022-09-11T10:33:49.180Z,22.4
2022-09-11T10:34:51.895Z,22.4
2022-09-11T10:35:54.693Z,22.4
2022-09-11T10:36:57.205Z,22.4
2022-09-11T10:38:00.001Z,22.4
2022-09-11T10:39:03.079Z,22.4
2022-09-11T10:40:06.026Z,22.4
2022-09-11T10:41:09.653Z,22.4
2022-09-11T10:42:13.734Z,22.4
2022-09-11T10:43:17.795Z,22.4
2022-09-11T10:44:20.854Z,22.5
2022-09-11T10:45:24.207Z,22.5
2022-09-11T10:46:27.095Z,22.5
2022-09-11T10:47:30.241Z,22.5
2022-09-11T10:48:32.567Z,22.5
2022-09-11T10:49:35.093Z,22.5
2022-09-11T10:50:37.893Z,22.6
2022-09-11T10:51:48.085Z,22.6
2022-09-11T10:52:51.152Z,22.6
2022-09-11T10:53:54.603Z,22.7
2022-09-11T10:54:57.948Z,22.7
2022-09-11T10:56:01.444Z,22.7
2022-09-11T10:57:03.982Z,22.7
2022-09-11T10:58:08.106Z,22.7
2022-09-11T10:59:11.024Z,22.7
2022-09-11T11:00:14.752Z,22.7
2022-09-11T11:01:18.262Z,22.7
2022-09-11T11:02:21.695Z,22.7
2022-09-11T11:03:25.316Z,22.7
2022-09-11T11:04:28.571Z,22.7
2022-09-11T11:05:31.593Z,22.7
2022-09-11T11:06:34.662Z,22.7
2022-09-11T11:07:37.760Z,22.7
2022-09-11T11:08:40.702Z,22.7
2022-09-11T11:09:43.731Z,22.7
2022-09-11T11:10:47.189Z,22.7
2022-09-11T11:11:50.359Z,22.7
2022-09-11T11:12:53.544Z,22.7
2022-09-11T11:13:57.399Z,22.6
2022-09-11T11:15:00.830Z,22.6
2022-09-11T11:16:04.084Z,22.6
2022-09-11T11:17:07.358Z,22.6
2022-09-11T11:18:10.734Z,22.6
2022-09-11T11:19:12.614Z,22.6
2022-09-11T11:20:15.785Z,22.6
2022-09-11T11:21:18.452Z,22.6
2022-09-11T11:22:21.884Z,22.6
2022-09-11T11:23:23.840Z,22.6
2022-09-11T11:24:27.017Z,22.6
2022-09-11T11:25:29.800Z,22.7
2022-09-11T11:26:32.862Z,22.7
2022-09-11T11:27:35.843Z,22.7
2022-09-11T11:28:38.705Z,22.7
2022-09-11T11:29:43.012Z,22.7
2022-09-11T11:30:46.698Z,22.8
2022-09-11T11:31:49.497Z,22.8
2022-09-11T11:32:53.310Z,22.8
2022-09-11T11:33:56.928Z,22.8
2022-09-11T11:35:00.002Z,22.9
2022-09-11T11:36:03.228Z,22.9
2022-09-11T11:37:06.694Z,22.9
2022-09-11T11:38:09.847Z,22.9
2022-09-11T11:39:12.920Z,23
2022-09-11T11:40:15.757Z,23
2022-09-11T11:41:18.558Z,23
2022-09-11T11:42:21.161Z,23
2022-09-11T11:43:24.153Z,23
2022-09-11T11:44:26.980Z,23
2022-09-11T11:45:31.244Z,23
2022-09-11T11:46:34.364Z,23
2022-09-11T11:47:37.153Z,23
2022-09-11T11:48:40.500Z,23
2022-09-11T11:49:42.851Z,23.1
2022-09-11T11:50:46.575Z,23.1
2022-09-11T11:51:49.169Z,23.1
2022-09-11T11:52:52.321Z,23.2
2022-09-11T11:53:55.667Z,23.2
2022-09-11T11:54:58.540Z,23.2
2022-09-11T11:56:01.526Z,23.3
2022-09-11T11:57:04.863Z,23.3
2022-09-11T11:58:07.171Z,23.3
2022-09-11T11:59:10.892Z,23.3
2022-09-11T12:00:14.135Z,23.3
2022-09-11T12:01:18.235Z,23.3
2022-09-11T12:02:21.117Z,23.3
2022-09-11T12:03:24.634Z,23.3
2022-09-11T12:04:28.106Z,23.3
2022-09-11T12:05:31.556Z,23.2
2022-09-11T12:06:34.713Z,23.3
2022-09-11T12:07:37.491Z,23.2
2022-09-11T12:08:41.069Z,23.2
2022-09-11T12:09:45.017Z,23.1
2022-09-11T12:10:47.820Z,23.1
2022-09-11T12:11:50.062Z,23
2022-09-11T12:12:53.140Z,23
2022-09-11T12:13:55.656Z,22.9
2022-09-11T12:14:58.726Z,22.9
2022-09-11T12:16:02.106Z,22.8
2022-09-11T12:17:06.173Z,22.8
2022-09-11T12:18:09.346Z,22.7
2022-09-11T12:19:12.057Z,22.7
2022-09-11T12:20:14.930Z,22.6
2022-09-11T12:21:17.756Z,22.6
2022-09-11T12:22:21.131Z,22.6
2022-09-11T12:23:23.923Z,22.5
2022-09-11T12:24:26.443Z,22.5
2022-09-11T12:25:29.232Z,22.5
2022-09-11T12:26:32.499Z,22.5
2022-09-11T12:27:35.837Z,22.4
2022-09-11T12:28:39.090Z,22.5
2022-09-11T12:29:42.065Z,22.4
2022-09-11T12:30:45.252Z,22.4
2022-09-11T12:31:47.800Z,22.4
2022-09-11T12:32:51.702Z,22.4
2022-09-11T12:33:55.097Z,22.4
2022-09-11T12:34:57.886Z,22.3
2022-09-11T12:36:00.424Z,22.3
2022-09-11T12:37:03.226Z,22.3
2022-09-11T12:38:06.364Z,22.3
2022-09-11T12:39:09.453Z,22.3
2022-09-11T12:40:13.026Z,22.3
2022-09-11T12:41:15.922Z,22.3
2022-09-11T12:42:18.742Z,22.3
2022-09-11T12:43:21.430Z,22.3
2022-09-11T12:44:24.030Z,22.2
2022-09-11T12:45:27.576Z,22.2
2022-09-11T12:46:30.240Z,22.2
2022-09-11T12:47:33.138Z,22.1
2022-09-11T12:48:37.292Z,22.1
2022-09-11T12:49:40.849Z,22.1
2022-09-11T12:50:44.261Z,22.1
2022-09-11T12:51:47.139Z,22.1
2022-09-11T12:52:50.480Z,22
2022-09-11T12:53:53.272Z,22
2022-09-11T12:54:56.339Z,22
2022-09-11T12:55:58.506Z,22
2022-09-11T12:57:01.817Z,22
2022-09-11T12:58:05.170Z,22
2022-09-11T12:59:07.130Z,22
2022-09-11T13:00:10.026Z,22
2022-09-11T13:01:12.984Z,22
2022-09-11T13:02:15.667Z,22
2022-09-11T13:03:19.579Z,21.9
2022-09-11T13:04:23.655Z,21.9
2022-09-11T13:05:26.765Z,21.9
2022-09-11T13:06:30.115Z,21.9
2022-09-11T13:07:32.720Z,21.9
2022-09-11T13:08:36.096Z,21.9
2022-09-11T13:09:39.519Z,21.9
2022-09-11T13:10:42.383Z,21.9
2022-09-11T13:11:46.002Z,21.9
2022-09-11T13:12:49.242Z,21.8
2022-09-11T13:13:51.672Z,21.9
2022-09-11T13:14:55.048Z,21.9
2022-09-11T13:15:58.293Z,21.9
2022-09-11T13:17:00.663Z,21.9
2022-09-11T13:18:04.083Z,21.8
2022-09-11T13:19:06.909Z,21.8
2022-09-11T13:20:11.349Z,21.8
2022-09-11T13:21:15.154Z,21.9
2022-09-11T13:22:17.397Z,21.9
2022-09-11T13:23:20.083Z,21.8
2022-09-11T13:24:23.232Z,21.9
2022-09-11T13:25:26.858Z,21.9
2022-09-11T13:26:29.758Z,22
2022-09-11T13:27:32.541Z,22.1
2022-09-11T13:28:35.414Z,22.1
2022-09-11T13:29:38.507Z,22.1
2022-09-11T13:30:41.656Z,22.2
2022-09-11T13:31:44.461Z,22.3
2022-09-11T13:32:47.818Z,22.3
2022-09-11T13:33:50.793Z,22.4
2022-09-11T13:34:53.899Z,22.5
2022-09-11T13:35:57.805Z,22.6
2022-09-11T13:37:00.928Z,22.7
2022-09-11T13:38:04.942Z,22.8
2022-09-11T13:39:07.659Z,22.9
2022-09-11T13:40:11.631Z,22.9
2022-09-11T13:41:14.594Z,23
2022-09-11T13:42:18.012Z,23.1
2022-09-11T13:43:21.164Z,23.2
2022-09-11T13:44:24.346Z,23.3
2022-09-11T13:45:27.644Z,23.4
2022-09-11T13:46:30.612Z,23.5
2022-09-11T13:47:33.145Z,23.6
2022-09-11T13:48:36.559Z,23.7
2022-09-11T13:49:39.631Z,23.8
2022-09-11T13:50:42.714Z,23.8
2022-09-11T13:51:46.512Z,23.9
2022-09-11T13:52:49.883Z,23.9
2022-09-11T13:53:52.216Z,23.9
2022-09-11T13:54:55.589Z,23.9
2022-09-11T13:55:58.671Z,23.9
2022-09-11T13:57:01.244Z,23.9
2022-09-11T13:58:04.600Z,23.9
2022-09-11T13:59:07.033Z,23.9
2022-09-11T14:00:09.826Z,23.9
2022-09-11T14:01:12.705Z,23.8
2022-09-11T14:02:15.913Z,23.9
2022-09-11T14:03:19.488Z,23.8
2022-09-11T14:04:22.088Z,23.9
2022-09-11T14:05:25.525Z,23.8